createdAt,value
2018-05-16T00:00:39.894Z,12.60
2018-05-16T00:03:07.440Z,13.30
2018-05-16T00:05:34.978Z,13.33
2018-05-16T00:08:02.519Z,12.90
2018-05-16T00:10:30.184Z,13.30
2018-05-16T00:12:57.795Z,13.13
2018-05-16T00:15:25.371Z,13.27
2018-05-16T00:17:53.588Z,14.30
2018-05-16T00:20:21.074Z,12.73
2018-05-16T00:22:48.526Z,13.50
2018-05-16T00:25:16.697Z,13.30
2018-05-16T00:27:44.253Z,12.93
2018-05-16T00:30:11.850Z,13.40
2018-05-16T00:32:43.436Z,14.00
2018-05-16T00:35:10.880Z,13.00
2018-05-16T00:37:38.420Z,14.20
2018-05-16T00:40:05.900Z,14.70
2018-05-16T00:42:33.377Z,14.07
2018-05-16T00:45:00.861Z,13.87
2018-05-16T00:47:28.332Z,13.00
2018-05-16T00:49:55.788Z,13.00
2018-05-16T00:52:23.299Z,13.03
2018-05-16T00:54:50.897Z,13.60
2018-05-16T00:57:19.276Z,12.80
2018-05-16T00:59:46.715Z,14.27
2018-05-16T01:02:14.187Z,13.97
2018-05-16T01:04:42.284Z,13.80
2018-05-16T01:07:09.758Z,13.60
2018-05-16T01:09:37.234Z,13.90
2018-05-16T01:12:04.704Z,13.80
2018-05-16T01:14:32.756Z,13.50
2018-05-16T01:17:00.229Z,13.50
2018-05-16T01:19:27.772Z,13.60
2018-05-16T01:21:55.217Z,13.70
2018-05-16T01:24:22.685Z,14.60
2018-05-16T01:26:50.195Z,14.40
2018-05-16T01:29:17.733Z,14.00
2018-05-16T01:31:45.187Z,13.70
2018-05-16T01:34:12.969Z,13.87
2018-05-16T01:36:40.409Z,14.27
2018-05-16T01:39:07.933Z,14.53
2018-05-16T01:41:35.391Z,13.87
2018-05-16T01:44:02.899Z,14.27
2018-05-16T01:46:30.345Z,13.57
2018-05-16T01:49:09.471Z,14.00
2018-05-16T01:51:36.932Z,14.40
2018-05-16T01:54:04.509Z,14.03
2018-05-16T01:56:33.316Z,14.20
2018-05-16T01:59:01.263Z,13.70
2018-05-16T02:01:28.731Z,13.03
2018-05-16T02:03:56.474Z,13.63
2018-05-16T02:06:23.944Z,13.80
2018-05-16T02:08:51.419Z,14.60
2018-05-16T02:11:18.927Z,14.23
2018-05-16T02:13:46.376Z,13.70
2018-05-16T02:16:13.941Z,13.93
2018-05-16T02:18:41.409Z,14.17
2018-05-16T02:21:09.211Z,14.77
2018-05-16T02:23:36.692Z,14.73
2018-05-16T02:26:04.430Z,14.10
2018-05-16T02:28:31.887Z,13.87
2018-05-16T02:30:59.459Z,13.80
2018-05-16T02:33:27.122Z,15.30
2018-05-16T02:35:55.007Z,14.10
2018-05-16T02:38:22.472Z,14.50
2018-05-16T02:40:49.926Z,14.60
2018-05-16T02:43:17.391Z,14.33
2018-05-16T02:45:44.837Z,14.17
2018-05-16T02:48:12.321Z,13.90
2018-05-16T02:50:40.010Z,13.93
2018-05-16T02:53:07.523Z,12.70
2018-05-16T02:55:34.977Z,13.17
2018-05-16T02:58:02.797Z,12.60
2018-05-16T03:00:30.857Z,13.17
2018-05-16T03:02:58.620Z,13.20
2018-05-16T03:05:26.066Z,13.70
2018-05-16T03:07:53.864Z,14.03
2018-05-16T03:10:21.353Z,13.30
2018-05-16T03:12:48.890Z,12.90
2018-05-16T03:15:16.365Z,12.70
2018-05-16T03:17:43.805Z,12.80
2018-05-16T03:20:11.330Z,13.20
2018-05-16T03:22:39.066Z,12.80
2018-05-16T03:25:06.548Z,13.40
2018-05-16T03:27:33.986Z,12.27
2018-05-16T03:30:01.467Z,14.00
2018-05-16T03:32:28.972Z,13.47
2018-05-16T03:34:56.717Z,14.03
2018-05-16T03:37:24.255Z,15.20
2018-05-16T03:39:51.729Z,13.63
2018-05-16T03:42:19.497Z,15.00
2018-05-16T03:44:46.974Z,15.40
2018-05-16T03:47:14.443Z,15.50
2018-05-16T03:49:41.986Z,15.70
2018-05-16T03:52:09.506Z,14.87
2018-05-16T03:54:37.019Z,14.50
2018-05-16T04:00:14.557Z,14.70
2018-05-16T04:02:53.851Z,14.90
2018-05-16T04:05:21.305Z,16.27
2018-05-16T04:07:49.261Z,15.90
2018-05-16T04:10:17.035Z,15.40
2018-05-16T04:12:44.500Z,16.47
2018-05-16T04:15:11.959Z,16.97
2018-05-16T04:17:39.467Z,16.10
2018-05-16T04:20:06.940Z,16.70
2018-05-16T04:22:34.431Z,17.00
2018-05-16T04:25:01.952Z,16.20
2018-05-16T04:27:29.436Z,15.07
2018-05-16T04:29:57.649Z,15.97
2018-05-16T04:32:25.258Z,16.33
2018-05-16T04:34:52.832Z,15.43
2018-05-16T04:37:20.419Z,16.70
2018-05-16T04:39:47.887Z,15.17
2018-05-16T04:42:15.415Z,16.27
2018-05-16T04:44:43.069Z,15.73
2018-05-16T04:47:11.470Z,14.40
2018-05-16T04:49:39.029Z,15.47
2018-05-16T04:52:06.510Z,15.80
2018-05-16T04:54:34.058Z,15.13
2018-05-16T04:57:03.003Z,14.40
2018-05-16T04:59:30.501Z,15.03
2018-05-16T05:01:57.959Z,13.90
2018-05-16T05:04:25.542Z,14.57
2018-05-16T05:06:53.044Z,15.53
2018-05-16T05:09:20.616Z,13.70
2018-05-16T05:11:48.691Z,15.00
2018-05-16T05:14:16.209Z,14.80
2018-05-16T05:16:45.380Z,14.60
2018-05-16T05:19:12.860Z,14.80
2018-05-16T05:21:40.336Z,13.63
2018-05-16T05:24:08.157Z,13.70
2018-05-16T05:26:35.564Z,13.83
2018-05-16T05:29:03.052Z,14.30
2018-05-16T05:31:30.549Z,14.87
2018-05-16T05:33:58.010Z,14.10
2018-05-16T05:36:25.493Z,13.90
2018-05-16T05:38:53.106Z,14.30
2018-05-16T05:41:20.664Z,14.57
2018-05-16T05:43:48.468Z,14.00
2018-05-16T05:46:15.911Z,14.70
2018-05-16T05:48:43.454Z,14.00
2018-05-16T05:51:10.957Z,14.77
2018-05-16T05:53:38.505Z,14.43
2018-05-16T05:56:05.970Z,14.23
2018-05-16T05:58:33.424Z,14.27
2018-05-16T06:01:00.907Z,15.20
2018-05-16T06:03:28.386Z,13.77
2018-05-16T06:05:56.115Z,14.97
2018-05-16T06:08:23.608Z,15.43
2018-05-16T06:10:51.093Z,15.00
2018-05-16T06:13:18.571Z,15.30
2018-05-16T06:15:46.029Z,16.50
2018-05-16T06:18:13.492Z,15.93
2018-05-16T06:20:41.023Z,14.30
2018-05-16T06:23:09.661Z,15.60
2018-05-16T06:25:37.140Z,13.93
2018-05-16T06:28:05.120Z,15.23
2018-05-16T06:30:32.690Z,15.17
2018-05-16T06:33:00.159Z,13.47
2018-05-16T06:35:28.782Z,14.33
2018-05-16T06:37:56.485Z,10.30
2018-05-16T06:40:23.951Z,10.47
2018-05-16T06:42:51.457Z,9.27
2018-05-16T06:45:18.991Z,8.60
2018-05-16T06:47:46.515Z,10.07
2018-05-16T06:50:13.989Z,10.00
2018-05-16T06:52:41.449Z,9.60
2018-05-16T06:55:09.154Z,8.30
2018-05-16T06:57:36.649Z,10.00
2018-05-16T07:00:04.135Z,10.67
2018-05-16T07:02:31.676Z,10.10
2018-05-16T07:04:59.192Z,10.23
2018-05-16T07:07:26.704Z,10.53
2018-05-16T07:09:54.172Z,10.43
2018-05-16T07:12:21.636Z,10.33
2018-05-16T07:14:49.201Z,11.80
2018-05-16T07:17:16.729Z,10.77
2018-05-16T07:19:44.175Z,11.83
2018-05-16T07:22:11.651Z,11.27
2018-05-16T07:24:39.187Z,11.37
2018-05-16T07:27:06.669Z,12.00
2018-05-16T07:29:34.869Z,10.70
2018-05-16T07:32:02.326Z,12.17
2018-05-16T07:34:29.842Z,8.20
2018-05-16T07:36:57.389Z,11.40
2018-05-16T07:39:25.554Z,9.90
2018-05-16T07:41:53.416Z,10.83
2018-05-16T07:44:20.913Z,11.37
2018-05-16T07:46:48.437Z,11.97
2018-05-16T07:49:15.934Z,12.20
2018-05-16T07:51:44.033Z,10.87
2018-05-16T07:54:11.506Z,11.77
2018-05-16T07:56:39.071Z,10.93
2018-05-16T07:59:06.653Z,11.57
2018-05-16T08:01:34.497Z,14.13
2018-05-16T08:04:01.963Z,11.20
2018-05-16T08:06:29.461Z,8.87
2018-05-16T08:08:57.052Z,7.90
2018-05-16T08:11:24.494Z,9.20
2018-05-16T08:13:51.963Z,7.33
2018-05-16T08:16:19.852Z,6.43
2018-05-16T08:18:47.293Z,6.60
2018-05-16T08:21:14.771Z,6.23
2018-05-16T08:23:42.223Z,6.57
2018-05-16T08:26:10.450Z,6.20
2018-05-16T08:28:37.931Z,6.77
2018-05-16T08:31:05.540Z,6.93
2018-05-16T08:33:32.945Z,7.40
2018-05-16T08:36:00.495Z,7.00
2018-05-16T08:38:28.696Z,7.07
2018-05-16T08:40:56.578Z,7.60
2018-05-16T08:43:24.016Z,7.27
2018-05-16T08:45:51.464Z,7.27
2018-05-16T08:48:19.635Z,8.00
2018-05-16T08:50:47.095Z,8.37
2018-05-16T08:53:14.744Z,7.87
2018-05-16T08:55:42.196Z,6.73
2018-05-16T08:58:09.791Z,6.17
2018-05-16T09:00:37.329Z,6.47
2018-05-16T09:03:04.937Z,6.73
2018-05-16T09:05:33.603Z,7.20
2018-05-16T09:08:01.737Z,7.53
2018-05-16T09:10:29.285Z,6.53
2018-05-16T09:12:57.521Z,7.53
2018-05-16T09:15:25.023Z,7.10
2018-05-16T09:17:52.502Z,6.57
2018-05-16T09:20:20.071Z,5.87
2018-05-16T09:22:47.528Z,5.57
2018-05-16T09:25:15.200Z,5.20
2018-05-16T09:27:42.793Z,5.80
2018-05-16T09:30:10.387Z,6.10
2018-05-16T09:32:37.972Z,5.53
2018-05-16T09:35:05.546Z,5.73
2018-05-16T09:37:33.291Z,5.17
2018-05-16T09:40:02.822Z,5.60
2018-05-16T09:42:30.345Z,4.90
2018-05-16T09:44:57.863Z,5.33
2018-05-16T09:47:25.336Z,6.33
2018-05-16T09:49:53.312Z,6.43
2018-05-16T09:52:20.808Z,6.00
2018-05-16T09:54:48.692Z,5.57
2018-05-16T09:57:16.190Z,6.73
2018-05-16T09:59:44.373Z,9.40
2018-05-16T10:02:12.003Z,6.90
2018-05-16T10:04:39.514Z,9.60
2018-05-16T10:07:06.949Z,11.40
2018-05-16T10:09:34.455Z,13.47
2018-05-16T10:12:01.927Z,9.40
2018-05-16T10:14:30.687Z,7.90
2018-05-16T10:16:58.214Z,6.20
2018-05-16T10:19:26.304Z,6.67
2018-05-16T10:21:53.796Z,6.70
2018-05-16T10:24:21.388Z,9.77
2018-05-16T10:26:48.856Z,10.83
2018-05-16T10:29:16.475Z,7.50
2018-05-16T10:31:44.375Z,7.27
2018-05-16T10:34:12.210Z,7.30
2018-05-16T10:36:39.662Z,7.97
2018-05-16T10:39:07.150Z,8.63
2018-05-16T10:41:34.656Z,10.73
2018-05-16T10:44:02.078Z,11.30
2018-05-16T10:46:29.618Z,10.80
2018-05-16T10:48:57.137Z,9.60
2018-05-16T10:51:25.063Z,8.57
2018-05-16T10:53:52.510Z,9.00
2018-05-16T10:56:20.051Z,8.23
2018-05-16T10:58:47.905Z,8.70
2018-05-16T11:01:15.461Z,8.80
2018-05-16T11:03:42.930Z,8.40
2018-05-16T11:06:10.475Z,9.53
2018-05-16T11:08:38.433Z,9.40
2018-05-16T11:11:05.915Z,9.10
2018-05-16T11:13:33.396Z,9.10
2018-05-16T11:16:01.037Z,8.53
2018-05-16T11:18:28.499Z,8.07
2018-05-16T11:20:56.223Z,7.53
2018-05-16T11:23:23.698Z,7.57
2018-05-16T11:25:51.199Z,6.10
2018-05-16T11:28:18.699Z,7.13
2018-05-16T11:30:46.316Z,7.40
2018-05-16T11:33:13.822Z,7.70
2018-05-16T11:35:41.279Z,7.60
2018-05-16T11:38:08.757Z,8.50
2018-05-16T11:40:36.713Z,8.27
2018-05-16T11:43:04.595Z,8.43
2018-05-16T11:45:32.041Z,7.63
2018-05-16T11:47:59.531Z,8.30
2018-05-16T11:50:26.998Z,8.20
2018-05-16T11:52:54.842Z,7.90
2018-05-16T11:55:22.339Z,9.30
2018-05-16T11:57:50.034Z,8.80
2018-05-16T12:00:17.495Z,8.13
2018-05-16T12:02:45.023Z,8.60
2018-05-16T12:05:12.663Z,8.50
2018-05-16T12:07:40.115Z,8.63
2018-05-16T12:10:07.701Z,8.00
2018-05-16T12:12:35.247Z,7.50
2018-05-16T12:15:02.731Z,8.07
2018-05-16T12:20:05.060Z,7.03
2018-05-16T12:22:33.722Z,6.77
2018-05-16T12:25:01.200Z,6.33
2018-05-16T12:27:28.717Z,6.10
2018-05-16T12:29:56.223Z,6.00
2018-05-16T12:32:23.709Z,6.20
2018-05-16T12:34:51.526Z,6.30
2018-05-16T12:37:19.037Z,5.60
2018-05-16T12:39:46.587Z,5.87
2018-05-16T12:42:14.092Z,6.40
2018-05-16T12:44:41.694Z,5.57
2018-05-16T12:47:09.232Z,5.60
2018-05-16T12:49:36.720Z,5.13
2018-05-16T12:52:04.195Z,5.73
2018-05-16T12:54:32.332Z,5.70
2018-05-16T12:57:00.202Z,5.57
2018-05-16T12:59:27.670Z,5.53
2018-05-16T13:01:56.471Z,5.33
2018-05-16T13:04:23.943Z,6.40
2018-05-16T13:06:51.413Z,6.43
2018-05-16T13:09:19.319Z,6.10
2018-05-16T13:11:46.791Z,6.43
2018-05-16T13:14:14.370Z,5.83
2018-05-16T13:16:41.849Z,4.47
2018-05-16T13:19:09.334Z,4.37
2018-05-16T13:21:36.871Z,4.73
2018-05-16T13:24:04.274Z,3.93
2018-05-16T13:26:31.763Z,5.07
2018-05-16T13:28:59.574Z,4.50
2018-05-16T13:31:27.332Z,5.73
2018-05-16T13:33:54.843Z,5.57
2018-05-16T13:36:22.530Z,5.87
2018-05-16T13:38:49.937Z,6.07
2018-05-16T13:41:17.515Z,5.60
2018-05-16T13:43:48.456Z,7.63
2018-05-16T13:46:16.021Z,5.70
2018-05-16T13:48:43.599Z,5.37
2018-05-16T13:51:11.079Z,4.83
2018-05-16T13:53:39.257Z,5.83
2018-05-16T13:56:07.552Z,5.70
2018-05-16T13:58:34.991Z,5.40
2018-05-16T14:01:03.362Z,5.80
2018-05-16T14:03:31.170Z,5.87
2018-05-16T14:05:58.662Z,5.57
2018-05-16T14:08:26.172Z,6.37
2018-05-16T14:10:54.021Z,6.43
2018-05-16T14:13:21.503Z,6.80
2018-05-16T14:15:50.010Z,5.87
2018-05-16T14:18:17.621Z,6.10
2018-05-16T14:20:45.410Z,5.77
2018-05-16T14:23:13.145Z,6.13
2018-05-16T14:25:41.806Z,7.07
2018-05-16T14:28:09.704Z,6.30
2018-05-16T14:30:38.025Z,7.20
2018-05-16T14:33:05.960Z,7.37
2018-05-16T14:35:33.400Z,6.50
2018-05-16T14:38:01.716Z,6.27
2018-05-16T14:40:29.302Z,5.83
2018-05-16T14:42:59.862Z,5.57
2018-05-16T14:45:28.193Z,5.90
2018-05-16T14:47:55.621Z,5.63
2018-05-16T14:50:24.095Z,5.67
2018-05-16T14:52:52.003Z,6.43
2018-05-16T14:55:20.152Z,5.67
2018-05-16T14:57:49.382Z,5.33
2018-05-16T15:00:16.944Z,5.50
2018-05-16T15:02:46.701Z,4.57
2018-05-16T15:05:14.978Z,4.60
2018-05-16T15:07:42.411Z,5.40
2018-05-16T15:10:09.913Z,5.27
2018-05-16T15:12:37.355Z,5.70
2018-05-16T15:15:04.906Z,5.40
2018-05-16T15:17:32.348Z,5.27
2018-05-16T15:19:59.825Z,5.23
2018-05-16T15:22:27.272Z,4.90
2018-05-16T15:24:54.765Z,4.97
2018-05-16T15:27:22.239Z,4.10
2018-05-16T15:29:49.727Z,2.73
2018-05-16T15:32:17.263Z,3.57
2018-05-16T15:34:44.712Z,4.50
2018-05-16T15:37:12.664Z,4.50
2018-05-16T15:39:40.137Z,5.10
2018-05-16T15:42:07.732Z,5.30
2018-05-16T15:44:35.230Z,4.77
2018-05-16T15:47:02.799Z,5.13
2018-05-16T15:49:30.279Z,4.87
2018-05-16T15:51:57.763Z,5.20
2018-05-16T15:54:26.670Z,5.37
2018-05-16T15:56:54.371Z,5.33
2018-05-16T15:59:22.122Z,4.97
2018-05-16T16:01:49.670Z,4.60
2018-05-16T16:04:20.923Z,4.57
2018-05-16T16:06:48.597Z,4.60
2018-05-16T16:09:16.077Z,4.27
2018-05-16T16:11:43.543Z,4.83
2018-05-16T16:14:12.168Z,4.80
2018-05-16T16:16:39.791Z,4.20
2018-05-16T16:19:07.316Z,4.47
2018-05-16T16:21:34.776Z,4.40
2018-05-16T16:24:02.267Z,4.70
2018-05-16T16:26:30.343Z,5.10
2018-05-16T16:28:58.252Z,4.60
2018-05-16T16:31:25.841Z,4.93
2018-05-16T16:33:53.355Z,4.90
2018-05-16T16:36:21.188Z,4.87
2018-05-16T16:38:48.743Z,4.70
2018-05-16T16:41:16.218Z,5.23
2018-05-16T16:43:45.966Z,5.50
2018-05-16T16:46:13.865Z,5.20
2018-05-16T16:48:41.378Z,7.00
2018-05-16T16:51:09.757Z,5.23
2018-05-16T16:53:37.767Z,5.77
2018-05-16T16:56:05.474Z,5.53
2018-05-16T16:58:34.825Z,5.20
2018-05-16T17:01:02.530Z,6.80
2018-05-16T17:03:30.030Z,6.00
2018-05-16T17:05:57.633Z,6.20
2018-05-16T17:08:25.115Z,5.53
2018-05-16T17:10:52.741Z,5.33
2018-05-16T17:13:21.416Z,5.60
2018-05-16T17:15:48.898Z,5.00
2018-05-16T17:18:16.430Z,6.40
2018-05-16T17:20:44.407Z,6.23
2018-05-16T17:23:12.672Z,6.17
2018-05-16T17:25:40.917Z,5.97
2018-05-16T17:28:08.422Z,6.17
2018-05-16T17:30:35.939Z,6.70
2018-05-16T17:33:03.414Z,5.90
2018-05-16T17:35:30.882Z,6.00
2018-05-16T17:37:59.584Z,6.07
2018-05-16T17:40:27.090Z,6.10
2018-05-16T17:42:56.520Z,5.57
2018-05-16T17:45:25.120Z,5.40
2018-05-16T17:47:54.706Z,5.33
2018-05-16T17:50:22.246Z,5.50
2018-05-16T17:52:51.040Z,5.20
2018-05-16T17:55:18.527Z,5.67
2018-05-16T17:57:46.082Z,5.60
2018-05-16T18:00:13.571Z,5.60
2018-05-16T18:02:41.044Z,6.10
2018-05-16T18:05:09.636Z,6.90
2018-05-16T18:07:37.083Z,6.43
2018-05-16T18:10:05.300Z,6.00
2018-05-16T18:12:32.838Z,5.83
2018-05-16T18:15:21.919Z,6.30
2018-05-16T18:17:52.194Z,5.87
2018-05-16T18:20:19.833Z,5.87
2018-05-16T18:22:48.150Z,6.33
2018-05-16T18:25:16.296Z,6.60
2018-05-16T18:27:44.708Z,6.60
2018-05-16T18:30:13.114Z,6.37
2018-05-16T18:32:40.746Z,5.97
2018-05-16T18:35:09.484Z,6.70
2018-05-16T18:37:38.072Z,6.40
2018-05-16T18:40:05.528Z,6.93
2018-05-16T18:42:33.164Z,6.70
2018-05-16T18:45:04.345Z,7.10
2018-05-16T18:47:32.707Z,6.50
2018-05-16T18:50:00.228Z,6.40
2018-05-16T18:52:27.741Z,5.67
2018-05-16T18:54:55.197Z,6.30
2018-05-16T18:57:23.552Z,6.73
2018-05-16T18:59:51.870Z,6.10
2018-05-16T19:02:20.190Z,6.40
2018-05-16T19:04:47.683Z,6.37
2018-05-16T19:07:15.161Z,6.70
2018-05-16T19:09:42.611Z,7.03
2018-05-16T19:12:10.238Z,5.50
2018-05-16T19:14:39.043Z,5.30
2018-05-16T19:17:06.489Z,6.73
2018-05-16T19:19:34.119Z,6.20
2018-05-16T19:22:01.831Z,5.70
2018-05-16T19:24:30.181Z,6.50
2018-05-16T19:26:57.801Z,5.90
2018-05-16T19:29:25.264Z,6.40
2018-05-16T19:31:52.731Z,7.80
2018-05-16T19:34:20.242Z,8.00
2018-05-16T19:36:47.736Z,7.67
2018-05-16T19:39:17.809Z,7.30
2018-05-16T19:41:45.345Z,7.00
2018-05-16T19:44:12.891Z,6.40
2018-05-16T19:46:40.401Z,6.30
2018-05-16T19:49:07.916Z,6.50
2018-05-16T19:51:35.484Z,6.80
2018-05-16T19:54:03.900Z,6.30
2018-05-16T19:56:31.382Z,7.30
2018-05-16T19:58:58.952Z,7.60
2018-05-16T20:01:26.428Z,6.90
2018-05-16T20:03:53.926Z,6.87
2018-05-16T20:06:21.404Z,6.70
2018-05-16T20:08:48.952Z,6.63
2018-05-16T20:11:16.519Z,6.33
2018-05-16T20:13:43.996Z,6.90
2018-05-16T20:16:12.562Z,6.57
2018-05-16T20:18:40.052Z,7.20
2018-05-16T20:21:07.570Z,7.40
2018-05-16T20:23:35.075Z,7.10
2018-05-16T20:26:02.985Z,6.67
2018-05-16T20:28:30.712Z,8.30
2018-05-16T20:30:58.308Z,7.03
2018-05-16T20:33:25.821Z,7.57
2018-05-16T20:35:53.493Z,7.63
2018-05-16T20:38:20.974Z,6.93
2018-05-16T20:43:22.542Z,7.33
2018-05-16T20:45:50.219Z,6.57
2018-05-16T20:48:17.686Z,6.10
2018-05-16T20:50:45.256Z,6.83
2018-05-16T20:53:12.666Z,6.20
2018-05-16T20:55:40.137Z,6.20
2018-05-16T20:58:07.625Z,5.83
2018-05-16T21:00:35.137Z,6.47
2018-05-16T21:03:02.629Z,5.80
2018-05-16T21:05:30.149Z,5.10
2018-05-16T21:07:57.602Z,6.77
2018-05-16T21:10:25.055Z,6.00
2018-05-16T21:12:52.544Z,5.83
2018-05-16T21:15:20.018Z,6.87
2018-05-16T21:17:47.575Z,6.87
2018-05-16T21:20:15.061Z,9.37
2018-05-16T21:22:42.533Z,6.63
2018-05-16T21:25:09.979Z,6.57
2018-05-16T21:27:37.450Z,6.40
2018-05-16T21:30:05.005Z,6.30
2018-05-16T21:32:32.487Z,7.30
2018-05-16T21:34:59.940Z,6.90
2018-05-16T21:37:27.381Z,6.53
2018-05-16T21:39:55.087Z,6.43
2018-05-16T21:42:22.600Z,6.83
2018-05-16T21:44:50.070Z,7.63
2018-05-16T21:47:18.161Z,7.13
2018-05-16T21:49:45.810Z,6.90
2018-05-16T21:52:15.005Z,7.33
2018-05-16T21:54:42.493Z,7.50
2018-05-16T21:57:09.992Z,7.77
2018-05-16T21:59:38.730Z,8.70
2018-05-16T22:02:07.659Z,9.27
2018-05-16T22:04:36.227Z,9.10
2018-05-16T22:07:04.481Z,9.23
2018-05-16T22:09:31.959Z,8.77
2018-05-16T22:11:59.483Z,8.30
2018-05-16T22:14:27.287Z,7.80
2018-05-16T22:16:54.728Z,7.67
2018-05-16T22:19:22.259Z,7.90
2018-05-16T22:21:49.753Z,8.40
2018-05-16T22:24:17.209Z,8.00
2018-05-16T22:26:44.726Z,7.33
2018-05-16T22:29:12.549Z,7.70
2018-05-16T22:31:46.889Z,7.17
2018-05-16T22:34:19.967Z,7.47
2018-05-16T22:36:54.585Z,7.07
2018-05-16T22:39:28.438Z,6.57
2018-05-16T22:42:02.148Z,6.80
2018-05-16T22:44:35.328Z,7.10
2018-05-16T22:47:02.814Z,6.43
2018-05-16T22:49:30.283Z,6.20
2018-05-16T22:51:57.730Z,7.23
2018-05-16T22:54:25.455Z,6.30
2018-05-16T22:56:52.910Z,6.57
2018-05-16T22:59:20.513Z,6.80
2018-05-16T23:01:48.405Z,7.23
2018-05-16T23:04:17.173Z,7.50
2018-05-16T23:06:44.635Z,7.37
2018-05-16T23:09:12.162Z,7.83
2018-05-16T23:11:40.132Z,7.30
2018-05-16T23:14:07.783Z,8.03
2018-05-16T23:16:36.212Z,8.10
2018-05-16T23:19:03.822Z,8.13
2018-05-16T23:21:31.279Z,8.50
2018-05-16T23:26:33.842Z,7.67
2018-05-16T23:29:01.306Z,7.50
2018-05-16T23:31:28.799Z,8.13
2018-05-16T23:33:56.329Z,8.20
2018-05-16T23:36:24.642Z,9.17
2018-05-16T23:38:52.153Z,9.13
2018-05-16T23:41:19.636Z,9.57
2018-05-16T23:43:47.189Z,9.40
2018-05-16T23:46:15.375Z,9.87
2018-05-16T23:48:42.838Z,10.30
2018-05-16T23:51:10.350Z,10.60
2018-05-16T23:53:37.855Z,9.90
2018-05-16T23:56:05.344Z,10.40
2018-05-16T23:58:32.774Z,9.70
